sensor_id;sensor_type;location;lat;lon;timestamp;P1;durP1;ratioP1;P2;durP2;ratioP2
69220;SDS011;56331;51.992;20.910;2023-02-14T00:01:15;3.10;;;1.80;;
69220;SDS011;56331;51.992;20.910;2023-02-14T00:03:41;3.00;;;1.87;;
69220;SDS011;56331;51.992;20.910;2023-02-14T00:06:10;3.10;;;1.90;;
69220;SDS011;56331;51.992;20.910;2023-02-14T00:11:06;3.05;;;2.02;;
69220;SDS011;56331;51.992;20.910;2023-02-14T00:13:34;3.05;;;1.87;;
69220;SDS011;56331;51.992;20.910;2023-02-14T00:16:01;2.60;;;1.82;;
69220;SDS011;56331;51.992;20.910;2023-02-14T00:18:28;2.55;;;1.85;;
69220;SDS011;56331;51.992;20.910;2023-02-14T00:21:13;2.52;;;1.67;;
69220;SDS011;56331;51.992;20.910;2023-02-14T00:23:39;2.12;;;1.37;;
69220;SDS011;56331;51.992;20.910;2023-02-14T00:26:11;2.60;;;1.87;;
69220;SDS011;56331;51.992;20.910;2023-02-14T00:28:38;2.98;;;1.70;;
69220;SDS011;56331;51.992;20.910;2023-02-14T00:31:04;3.15;;;1.82;;
69220;SDS011;56331;51.992;20.910;2023-02-14T00:33:30;2.35;;;1.77;;
69220;SDS011;56331;51.992;20.910;2023-02-14T00:35:57;3.52;;;1.98;;
69220;SDS011;56331;51.992;20.910;2023-02-14T00:38:25;2.72;;;1.70;;
69220;SDS011;56331;51.992;20.910;2023-02-14T00:40:51;2.70;;;1.80;;
69220;SDS011;56331;51.992;20.910;2023-02-14T00:43:18;3.45;;;1.72;;
69220;SDS011;56331;51.992;20.910;2023-02-14T00:45:44;2.95;;;1.77;;
69220;SDS011;56331;51.992;20.910;2023-02-14T00:48:11;2.80;;;1.62;;
69220;SDS011;56331;51.992;20.910;2023-02-14T00:50:37;2.92;;;1.75;;
69220;SDS011;56331;51.992;20.910;2023-02-14T00:53:04;2.20;;;1.52;;
69220;SDS011;56331;51.992;20.910;2023-02-14T00:55:30;1.95;;;1.60;;
69220;SDS011;56331;51.992;20.910;2023-02-14T00:57:56;3.45;;;1.80;;
69220;SDS011;56331;51.992;20.910;2023-02-14T01:00:27;2.50;;;1.60;;
69220;SDS011;56331;51.992;20.910;2023-02-14T01:02:53;2.27;;;1.60;;
69220;SDS011;56331;51.992;20.910;2023-02-14T01:05:20;2.40;;;1.67;;
69220;SDS011;56331;51.992;20.910;2023-02-14T01:07:46;3.05;;;1.82;;
69220;SDS011;56331;51.992;20.910;2023-02-14T01:10:13;2.20;;;1.62;;
69220;SDS011;56331;51.992;20.910;2023-02-14T01:12:39;2.30;;;1.47;;
69220;SDS011;56331;51.992;20.910;2023-02-14T01:15:06;2.72;;;1.50;;
69220;SDS011;56331;51.992;20.910;2023-02-14T01:17:38;2.92;;;1.75;;
69220;SDS011;56331;51.992;20.910;2023-02-14T01:20:01;2.83;;;1.92;;
69220;SDS011;56331;51.992;20.910;2023-02-14T01:22:29;2.25;;;1.70;;
69220;SDS011;56331;51.992;20.910;2023-02-14T01:27:25;3.17;;;1.67;;
69220;SDS011;56331;51.992;20.910;2023-02-14T01:29:51;2.85;;;1.60;;
69220;SDS011;56331;51.992;20.910;2023-02-14T01:32:17;2.40;;;1.90;;
69220;SDS011;56331;51.992;20.910;2023-02-14T01:34:44;3.15;;;1.72;;
69220;SDS011;56331;51.992;20.910;2023-02-14T01:37:11;3.47;;;1.77;;
69220;SDS011;56331;51.992;20.910;2023-02-14T01:39:38;3.27;;;1.60;;
69220;SDS011;56331;51.992;20.910;2023-02-14T01:42:05;2.52;;;1.60;;
69220;SDS011;56331;51.992;20.910;2023-02-14T01:47:06;2.70;;;1.80;;
69220;SDS011;56331;51.992;20.910;2023-02-14T01:52:10;3.37;;;1.65;;
69220;SDS011;56331;51.992;20.910;2023-02-14T01:54:43;2.72;;;1.60;;
69220;SDS011;56331;51.992;20.910;2023-02-14T01:57:13;3.17;;;1.67;;
69220;SDS011;56331;51.992;20.910;2023-02-14T01:59:44;2.58;;;1.80;;
69220;SDS011;56331;51.992;20.910;2023-02-14T02:02:15;1.80;;;1.40;;
69220;SDS011;56331;51.992;20.910;2023-02-14T02:04:43;2.85;;;1.60;;
69220;SDS011;56331;51.992;20.910;2023-02-14T02:07:13;2.50;;;1.62;;
69220;SDS011;56331;51.992;20.910;2023-02-14T02:09:47;3.58;;;1.80;;
69220;SDS011;56331;51.992;20.910;2023-02-14T02:12:11;4.42;;;1.62;;
69220;SDS011;56331;51.992;20.910;2023-02-14T02:14:38;2.60;;;1.60;;
69220;SDS011;56331;51.992;20.910;2023-02-14T02:17:22;3.30;;;1.97;;
69220;SDS011;56331;51.992;20.910;2023-02-14T02:33:40;2.37;;;2.00;;
69220;SDS011;56331;51.992;20.910;2023-02-14T02:44:18;2.70;;;1.65;;
69220;SDS011;56331;51.992;20.910;2023-02-14T02:49:36;2.62;;;1.52;;
69220;SDS011;56331;51.992;20.910;2023-02-14T02:52:21;2.55;;;1.70;;
69220;SDS011;56331;51.992;20.910;2023-02-14T02:55:26;3.05;;;1.80;;
69220;SDS011;56331;51.992;20.910;2023-02-14T02:57:59;1.98;;;1.67;;
69220;SDS011;56331;51.992;20.910;2023-02-14T03:00:27;3.10;;;1.75;;
69220;SDS011;56331;51.992;20.910;2023-02-14T03:02:55;2.80;;;1.95;;
69220;SDS011;56331;51.992;20.910;2023-02-14T03:05:41;2.55;;;1.57;;
69220;SDS011;56331;51.992;20.910;2023-02-14T03:08:08;3.98;;;2.17;;
69220;SDS011;56331;51.992;20.910;2023-02-14T03:10:36;3.25;;;1.90;;
69220;SDS011;56331;51.992;20.910;2023-02-14T03:16:00;2.80;;;1.87;;
69220;SDS011;56331;51.992;20.910;2023-02-14T03:18:37;3.05;;;1.87;;
69220;SDS011;56331;51.992;20.910;2023-02-14T03:24:18;2.87;;;1.72;;
69220;SDS011;56331;51.992;20.910;2023-02-14T03:26:55;2.67;;;2.30;;
69220;SDS011;56331;51.992;20.910;2023-02-14T03:29:18;2.20;;;1.70;;
69220;SDS011;56331;51.992;20.910;2023-02-14T03:31:59;3.55;;;2.15;;
69220;SDS011;56331;51.992;20.910;2023-02-14T03:37:47;3.02;;;2.02;;
69220;SDS011;56331;51.992;20.910;2023-02-14T03:39:54;4.03;;;2.35;;
69220;SDS011;56331;51.992;20.910;2023-02-14T03:42:31;3.52;;;2.00;;
69220;SDS011;56331;51.992;20.910;2023-02-14T03:47:24;3.50;;;2.12;;
69220;SDS011;56331;51.992;20.910;2023-02-14T03:49:54;2.17;;;1.70;;
69220;SDS011;56331;51.992;20.910;2023-02-14T03:52:23;3.42;;;2.10;;
69220;SDS011;56331;51.992;20.910;2023-02-14T03:54:52;3.55;;;2.10;;
69220;SDS011;56331;51.992;20.910;2023-02-14T03:57:24;2.37;;;2.02;;
69220;SDS011;56331;51.992;20.910;2023-02-14T04:02:54;3.17;;;1.95;;
69220;SDS011;56331;51.992;20.910;2023-02-14T04:04:59;2.97;;;1.70;;
69220;SDS011;56331;51.992;20.910;2023-02-14T04:07:28;2.40;;;1.67;;
69220;SDS011;56331;51.992;20.910;2023-02-14T04:09:54;2.75;;;1.95;;
69220;SDS011;56331;51.992;20.910;2023-02-14T04:12:21;2.95;;;2.10;;
69220;SDS011;56331;51.992;20.910;2023-02-14T04:14:47;2.77;;;1.82;;
69220;SDS011;56331;51.992;20.910;2023-02-14T04:17:14;2.65;;;1.72;;
69220;SDS011;56331;51.992;20.910;2023-02-14T04:19:58;2.98;;;1.80;;
69220;SDS011;56331;51.992;20.910;2023-02-14T04:22:25;2.33;;;1.90;;
69220;SDS011;56331;51.992;20.910;2023-02-14T04:24:52;2.77;;;1.87;;
69220;SDS011;56331;51.992;20.910;2023-02-14T04:27:19;2.92;;;2.00;;
69220;SDS011;56331;51.992;20.910;2023-02-14T04:29:46;2.98;;;1.90;;
69220;SDS011;56331;51.992;20.910;2023-02-14T04:32:17;3.02;;;2.00;;
69220;SDS011;56331;51.992;20.910;2023-02-14T04:34:45;2.95;;;2.10;;
69220;SDS011;56331;51.992;20.910;2023-02-14T04:37:13;2.75;;;1.98;;
69220;SDS011;56331;51.992;20.910;2023-02-14T04:39:41;2.62;;;1.90;;
69220;SDS011;56331;51.992;20.910;2023-02-14T04:42:08;2.70;;;1.90;;
69220;SDS011;56331;51.992;20.910;2023-02-14T04:44:34;2.40;;;1.72;;
69220;SDS011;56331;51.992;20.910;2023-02-14T04:47:05;2.75;;;2.00;;
69220;SDS011;56331;51.992;20.910;2023-02-14T04:49:33;2.62;;;1.90;;
69220;SDS011;56331;51.992;20.910;2023-02-14T04:52:00;3.02;;;1.87;;
69220;SDS011;56331;51.992;20.910;2023-02-14T04:54:27;2.58;;;1.90;;
69220;SDS011;56331;51.992;20.910;2023-02-14T04:56:54;3.50;;;2.20;;
69220;SDS011;56331;51.992;20.910;2023-02-14T04:59:20;2.50;;;1.95;;
69220;SDS011;56331;51.992;20.910;2023-02-14T05:01:47;2.37;;;1.85;;
69220;SDS011;56331;51.992;20.910;2023-02-14T05:04:14;2.98;;;2.00;;
69220;SDS011;56331;51.992;20.910;2023-02-14T05:06:40;2.25;;;1.72;;
69220;SDS011;56331;51.992;20.910;2023-02-14T05:09:06;2.50;;;1.85;;
69220;SDS011;56331;51.992;20.910;2023-02-14T05:11:37;2.75;;;2.02;;
69220;SDS011;56331;51.992;20.910;2023-02-14T05:14:01;2.42;;;1.82;;
69220;SDS011;56331;51.992;20.910;2023-02-14T05:16:28;2.77;;;2.10;;
69220;SDS011;56331;51.992;20.910;2023-02-14T05:18:59;3.30;;;1.98;;
69220;SDS011;56331;51.992;20.910;2023-02-14T05:21:23;2.35;;;1.90;;
69220;SDS011;56331;51.992;20.910;2023-02-14T05:23:49;2.33;;;1.82;;
69220;SDS011;56331;51.992;20.910;2023-02-14T05:26:15;3.05;;;2.20;;
69220;SDS011;56331;51.992;20.910;2023-02-14T05:28:42;2.90;;;2.22;;
69220;SDS011;56331;51.992;20.910;2023-02-14T05:31:08;3.67;;;2.20;;
69220;SDS011;56331;51.992;20.910;2023-02-14T05:33:39;2.98;;;1.98;;
69220;SDS011;56331;51.992;20.910;2023-02-14T05:36:06;2.92;;;2.00;;
69220;SDS011;56331;51.992;20.910;2023-02-14T05:38:33;2.72;;;2.10;;
69220;SDS011;56331;51.992;20.910;2023-02-14T05:41:00;2.83;;;2.22;;
69220;SDS011;56331;51.992;20.910;2023-02-14T05:43:26;3.40;;;2.25;;
69220;SDS011;56331;51.992;20.910;2023-02-14T05:45:53;2.90;;;2.17;;
69220;SDS011;56331;51.992;20.910;2023-02-14T05:48:19;3.35;;;2.42;;
69220;SDS011;56331;51.992;20.910;2023-02-14T05:50:46;2.65;;;1.98;;
69220;SDS011;56331;51.992;20.910;2023-02-14T05:53:12;2.45;;;1.92;;
69220;SDS011;56331;51.992;20.910;2023-02-14T05:55:47;2.77;;;2.00;;
69220;SDS011;56331;51.992;20.910;2023-02-14T05:58:13;3.05;;;2.20;;
69220;SDS011;56331;51.992;20.910;2023-02-14T06:00:40;2.35;;;1.95;;
69220;SDS011;56331;51.992;20.910;2023-02-14T06:03:06;3.55;;;2.52;;
69220;SDS011;56331;51.992;20.910;2023-02-14T06:05:33;3.33;;;2.35;;
69220;SDS011;56331;51.992;20.910;2023-02-14T06:08:01;4.72;;;2.30;;
69220;SDS011;56331;51.992;20.910;2023-02-14T06:10:28;3.47;;;2.58;;
69220;SDS011;56331;51.992;20.910;2023-02-14T06:12:56;4.08;;;2.50;;
69220;SDS011;56331;51.992;20.910;2023-02-14T06:15:24;3.45;;;2.60;;
69220;SDS011;56331;51.992;20.910;2023-02-14T06:17:54;3.30;;;2.67;;
69220;SDS011;56331;51.992;20.910;2023-02-14T06:20:22;3.75;;;2.52;;
69220;SDS011;56331;51.992;20.910;2023-02-14T06:22:49;3.65;;;2.62;;
69220;SDS011;56331;51.992;20.910;2023-02-14T06:25:16;2.30;;;2.05;;
69220;SDS011;56331;51.992;20.910;2023-02-14T06:27:43;4.90;;;2.70;;
69220;SDS011;56331;51.992;20.910;2023-02-14T06:30:10;3.30;;;2.40;;
69220;SDS011;56331;51.992;20.910;2023-02-14T06:32:37;3.50;;;2.50;;
69220;SDS011;56331;51.992;20.910;2023-02-14T06:35:06;2.52;;;2.33;;
69220;SDS011;56331;51.992;20.910;2023-02-14T06:37:33;3.92;;;2.65;;
69220;SDS011;56331;51.992;20.910;2023-02-14T06:40:00;3.87;;;2.72;;
69220;SDS011;56331;51.992;20.910;2023-02-14T06:42:26;3.58;;;2.67;;
69220;SDS011;56331;51.992;20.910;2023-02-14T06:44:54;5.50;;;3.30;;
69220;SDS011;56331;51.992;20.910;2023-02-14T06:47:21;3.50;;;2.62;;
69220;SDS011;56331;51.992;20.910;2023-02-14T06:49:47;3.77;;;2.90;;
69220;SDS011;56331;51.992;20.910;2023-02-14T06:52:14;3.42;;;2.47;;
69220;SDS011;56331;51.992;20.910;2023-02-14T06:54:41;4.00;;;2.90;;
69220;SDS011;56331;51.992;20.910;2023-02-14T06:57:07;4.17;;;2.85;;
69220;SDS011;56331;51.992;20.910;2023-02-14T06:59:34;3.25;;;2.87;;
69220;SDS011;56331;51.992;20.910;2023-02-14T07:02:00;4.47;;;3.17;;
69220;SDS011;56331;51.992;20.910;2023-02-14T07:04:26;3.50;;;2.87;;
69220;SDS011;56331;51.992;20.910;2023-02-14T07:06:53;9.18;;;3.27;;
69220;SDS011;56331;51.992;20.910;2023-02-14T07:09:20;3.95;;;2.80;;
69220;SDS011;56331;51.992;20.910;2023-02-14T07:11:47;3.27;;;2.80;;
69220;SDS011;56331;51.992;20.910;2023-02-14T07:14:16;3.90;;;2.90;;
69220;SDS011;56331;51.992;20.910;2023-02-14T07:16:42;4.42;;;2.90;;
69220;SDS011;56331;51.992;20.910;2023-02-14T07:19:08;3.27;;;2.60;;
69220;SDS011;56331;51.992;20.910;2023-02-14T07:21:37;3.35;;;2.70;;
69220;SDS011;56331;51.992;20.910;2023-02-14T07:24:03;4.25;;;2.70;;
69220;SDS011;56331;51.992;20.910;2023-02-14T07:26:31;4.30;;;2.70;;
69220;SDS011;56331;51.992;20.910;2023-02-14T07:28:57;3.08;;;2.62;;
69220;SDS011;56331;51.992;20.910;2023-02-14T07:31:24;3.80;;;2.77;;
69220;SDS011;56331;51.992;20.910;2023-02-14T07:33:50;3.05;;;2.72;;
69220;SDS011;56331;51.992;20.910;2023-02-14T07:36:17;3.25;;;2.85;;
69220;SDS011;56331;51.992;20.910;2023-02-14T07:38:49;3.70;;;2.80;;
69220;SDS011;56331;51.992;20.910;2023-02-14T07:41:13;2.85;;;2.40;;
69220;SDS011;56331;51.992;20.910;2023-02-14T07:43:40;4.03;;;3.00;;
69220;SDS011;56331;51.992;20.910;2023-02-14T07:46:06;3.65;;;2.77;;
69220;SDS011;56331;51.992;20.910;2023-02-14T07:48:33;6.08;;;3.02;;
69220;SDS011;56331;51.992;20.910;2023-02-14T07:51:00;4.03;;;2.67;;
69220;SDS011;56331;51.992;20.910;2023-02-14T07:53:27;3.08;;;2.60;;
69220;SDS011;56331;51.992;20.910;2023-02-14T07:55:53;3.35;;;2.70;;
69220;SDS011;56331;51.992;20.910;2023-02-14T07:58:19;3.02;;;2.72;;
69220;SDS011;56331;51.992;20.910;2023-02-14T08:00:47;3.70;;;2.35;;
69220;SDS011;56331;51.992;20.910;2023-02-14T08:03:13;3.30;;;2.70;;
69220;SDS011;56331;51.992;20.910;2023-02-14T08:05:40;4.00;;;2.85;;
69220;SDS011;56331;51.992;20.910;2023-02-14T08:08:06;5.60;;;2.72;;
69220;SDS011;56331;51.992;20.910;2023-02-14T08:10:33;3.85;;;2.65;;
69220;SDS011;56331;51.992;20.910;2023-02-14T08:13:00;3.85;;;2.95;;
69220;SDS011;56331;51.992;20.910;2023-02-14T08:15:29;3.65;;;2.87;;
69220;SDS011;56331;51.992;20.910;2023-02-14T08:18:15;3.25;;;2.65;;
69220;SDS011;56331;51.992;20.910;2023-02-14T08:20:46;3.72;;;2.40;;
69220;SDS011;56331;51.992;20.910;2023-02-14T08:23:16;3.50;;;2.67;;
69220;SDS011;56331;51.992;20.910;2023-02-14T08:25:43;3.15;;;2.45;;
69220;SDS011;56331;51.992;20.910;2023-02-14T08:28:10;2.92;;;2.37;;
69220;SDS011;56331;51.992;20.910;2023-02-14T08:30:41;3.40;;;2.65;;
69220;SDS011;56331;51.992;20.910;2023-02-14T08:33:08;3.40;;;2.37;;
69220;SDS011;56331;51.992;20.910;2023-02-14T08:35:35;3.62;;;2.50;;
69220;SDS011;56331;51.992;20.910;2023-02-14T08:38:03;3.05;;;2.70;;
69220;SDS011;56331;51.992;20.910;2023-02-14T08:40:30;4.53;;;2.60;;
69220;SDS011;56331;51.992;20.910;2023-02-14T08:42:58;3.17;;;2.70;;
69220;SDS011;56331;51.992;20.910;2023-02-14T08:45:25;3.17;;;2.50;;
69220;SDS011;56331;51.992;20.910;2023-02-14T08:47:51;3.22;;;2.65;;
69220;SDS011;56331;51.992;20.910;2023-02-14T08:50:18;3.33;;;2.40;;
69220;SDS011;56331;51.992;20.910;2023-02-14T08:52:45;3.25;;;2.50;;
69220;SDS011;56331;51.992;20.910;2023-02-14T08:55:12;3.58;;;2.75;;
69220;SDS011;56331;51.992;20.910;2023-02-14T08:57:39;3.10;;;2.37;;
69220;SDS011;56331;51.992;20.910;2023-02-14T09:00:06;3.15;;;2.45;;
69220;SDS011;56331;51.992;20.910;2023-02-14T09:02:34;3.55;;;2.55;;
69220;SDS011;56331;51.992;20.910;2023-02-14T09:05:01;4.40;;;2.62;;
69220;SDS011;56331;51.992;20.910;2023-02-14T09:07:27;2.90;;;2.27;;
69220;SDS011;56331;51.992;20.910;2023-02-14T09:09:53;3.00;;;2.70;;
69220;SDS011;56331;51.992;20.910;2023-02-14T09:12:20;5.10;;;3.02;;
69220;SDS011;56331;51.992;20.910;2023-02-14T09:14:47;2.75;;;2.17;;
69220;SDS011;56331;51.992;20.910;2023-02-14T09:17:13;3.17;;;2.87;;
69220;SDS011;56331;51.992;20.910;2023-02-14T09:19:40;4.35;;;3.17;;
69220;SDS011;56331;51.992;20.910;2023-02-14T09:22:07;4.83;;;2.80;;
69220;SDS011;56331;51.992;20.910;2023-02-14T09:24:35;4.33;;;2.87;;
69220;SDS011;56331;51.992;20.910;2023-02-14T09:27:03;4.05;;;2.55;;
69220;SDS011;56331;51.992;20.910;2023-02-14T09:29:31;4.05;;;2.83;;
69220;SDS011;56331;51.992;20.910;2023-02-14T09:31:58;3.27;;;2.40;;
69220;SDS011;56331;51.992;20.910;2023-02-14T09:34:26;5.15;;;2.80;;
69220;SDS011;56331;51.992;20.910;2023-02-14T09:37:11;3.30;;;2.70;;
69220;SDS011;56331;51.992;20.910;2023-02-14T09:39:38;4.12;;;3.02;;
69220;SDS011;56331;51.992;20.910;2023-02-14T09:44:41;2.92;;;2.35;;
69220;SDS011;56331;51.992;20.910;2023-02-14T09:49:49;5.05;;;2.98;;
69220;SDS011;56331;51.992;20.910;2023-02-14T09:52:17;4.58;;;2.37;;
69220;SDS011;56331;51.992;20.910;2023-02-14T09:54:48;3.50;;;2.85;;
69220;SDS011;56331;51.992;20.910;2023-02-14T09:57:34;3.83;;;3.10;;
69220;SDS011;56331;51.992;20.910;2023-02-14T10:03:16;3.60;;;2.70;;
69220;SDS011;56331;51.992;20.910;2023-02-14T10:05:57;5.08;;;2.72;;
69220;SDS011;56331;51.992;20.910;2023-02-14T10:11:32;6.65;;;3.70;;
69220;SDS011;56331;51.992;20.910;2023-02-14T10:14:04;4.60;;;2.90;;
69220;SDS011;56331;51.992;20.910;2023-02-14T10:16:46;3.35;;;3.05;;
69220;SDS011;56331;51.992;20.910;2023-02-14T10:19:22;3.90;;;3.00;;
69220;SDS011;56331;51.992;20.910;2023-02-14T10:21:52;4.25;;;3.20;;
69220;SDS011;56331;51.992;20.910;2023-02-14T10:26:57;4.60;;;3.20;;
69220;SDS011;56331;51.992;20.910;2023-02-14T10:29:25;3.70;;;2.98;;
69220;SDS011;56331;51.992;20.910;2023-02-14T10:32:01;3.77;;;3.15;;
69220;SDS011;56331;51.992;20.910;2023-02-14T10:34:39;4.58;;;3.30;;
69220;SDS011;56331;51.992;20.910;2023-02-14T10:42:39;4.65;;;3.40;;
69220;SDS011;56331;51.992;20.910;2023-02-14T10:50:47;4.85;;;3.30;;
69220;SDS011;56331;51.992;20.910;2023-02-14T10:56:24;5.28;;;3.25;;
69220;SDS011;56331;51.992;20.910;2023-02-14T10:58:44;3.80;;;3.00;;
69220;SDS011;56331;51.992;20.910;2023-02-14T11:01:14;4.15;;;3.00;;
69220;SDS011;56331;51.992;20.910;2023-02-14T11:03:55;4.53;;;3.08;;
69220;SDS011;56331;51.992;20.910;2023-02-14T11:06:26;4.12;;;2.90;;
69220;SDS011;56331;51.992;20.910;2023-02-14T11:08:53;3.98;;;3.20;;
69220;SDS011;56331;51.992;20.910;2023-02-14T11:11:40;6.42;;;3.40;;
69220;SDS011;56331;51.992;20.910;2023-02-14T11:14:25;3.95;;;3.00;;
69220;SDS011;56331;51.992;20.910;2023-02-14T11:16:55;5.10;;;3.27;;
69220;SDS011;56331;51.992;20.910;2023-02-14T11:19:33;4.47;;;3.33;;
69220;SDS011;56331;51.992;20.910;2023-02-14T11:22:00;4.08;;;3.25;;
69220;SDS011;56331;51.992;20.910;2023-02-14T11:27:04;6.53;;;3.27;;
69220;SDS011;56331;51.992;20.910;2023-02-14T11:32:12;5.97;;;3.27;;
69220;SDS011;56331;51.992;20.910;2023-02-14T11:35:04;5.50;;;3.40;;
69220;SDS011;56331;51.992;20.910;2023-02-14T11:40:04;6.40;;;3.42;;
69220;SDS011;56331;51.992;20.910;2023-02-14T11:42:33;5.80;;;3.67;;
69220;SDS011;56331;51.992;20.910;2023-02-14T11:45:05;5.65;;;3.40;;
69220;SDS011;56331;51.992;20.910;2023-02-14T11:47:34;5.83;;;3.42;;
69220;SDS011;56331;51.992;20.910;2023-02-14T11:50:06;5.75;;;3.67;;
69220;SDS011;56331;51.992;20.910;2023-02-14T11:52:48;7.60;;;3.50;;
69220;SDS011;56331;51.992;20.910;2023-02-14T11:57:48;6.17;;;3.75;;
69220;SDS011;56331;51.992;20.910;2023-02-14T12:00:17;6.60;;;3.40;;
69220;SDS011;56331;51.992;20.910;2023-02-14T12:02:46;6.33;;;3.85;;
69220;SDS011;56331;51.992;20.910;2023-02-14T12:08:03;6.80;;;3.85;;
69220;SDS011;56331;51.992;20.910;2023-02-14T12:10:35;5.47;;;3.83;;
69220;SDS011;56331;51.992;20.910;2023-02-14T12:15:38;6.10;;;3.92;;
69220;SDS011;56331;51.992;20.910;2023-02-14T12:24:04;6.65;;;3.65;;
69220;SDS011;56331;51.992;20.910;2023-02-14T12:26:35;6.85;;;4.03;;
69220;SDS011;56331;51.992;20.910;2023-02-14T12:31:46;6.83;;;4.25;;
69220;SDS011;56331;51.992;20.910;2023-02-14T12:34:14;6.55;;;4.20;;
69220;SDS011;56331;51.992;20.910;2023-02-14T12:39:43;5.25;;;3.67;;
69220;SDS011;56331;51.992;20.910;2023-02-14T12:50:52;5.83;;;4.22;;
69220;SDS011;56331;51.992;20.910;2023-02-14T13:01:53;5.60;;;4.10;;
69220;SDS011;56331;51.992;20.910;2023-02-14T13:07:19;4.83;;;3.98;;
69220;SDS011;56331;51.992;20.910;2023-02-14T13:10:14;5.87;;;4.05;;
69220;SDS011;56331;51.992;20.910;2023-02-14T13:12:56;6.37;;;4.40;;
69220;SDS011;56331;51.992;20.910;2023-02-14T13:15:36;6.05;;;4.20;;
69220;SDS011;56331;51.992;20.910;2023-02-14T13:18:18;5.33;;;4.28;;
69220;SDS011;56331;51.992;20.910;2023-02-14T13:20:50;6.47;;;4.33;;
69220;SDS011;56331;51.992;20.910;2023-02-14T13:26:07;5.50;;;4.37;;
69220;SDS011;56331;51.992;20.910;2023-02-14T13:29:06;6.58;;;4.33;;
69220;SDS011;56331;51.992;20.910;2023-02-14T13:31:38;5.42;;;4.22;;
69220;SDS011;56331;51.992;20.910;2023-02-14T13:34:16;6.35;;;4.35;;
69220;SDS011;56331;51.992;20.910;2023-02-14T13:36:45;5.43;;;4.30;;
69220;SDS011;56331;51.992;20.910;2023-02-14T13:39:16;5.37;;;3.90;;
69220;SDS011;56331;51.992;20.910;2023-02-14T13:49:54;5.08;;;4.00;;
69220;SDS011;56331;51.992;20.910;2023-02-14T13:55:19;5.35;;;4.37;;
69220;SDS011;56331;51.992;20.910;2023-02-14T13:58:04;4.80;;;3.62;;
69220;SDS011;56331;51.992;20.910;2023-02-14T14:00:38;5.87;;;4.13;;
69220;SDS011;56331;51.992;20.910;2023-02-14T14:03:06;6.00;;;4.17;;
69220;SDS011;56331;51.992;20.910;2023-02-14T14:10:57;6.12;;;4.60;;
69220;SDS011;56331;51.992;20.910;2023-02-14T14:16:27;5.37;;;4.05;;
69220;SDS011;56331;51.992;20.910;2023-02-14T14:18:59;6.70;;;3.87;;
69220;SDS011;56331;51.992;20.910;2023-02-14T14:21:32;5.72;;;3.83;;
69220;SDS011;56331;51.992;20.910;2023-02-14T14:26:48;5.05;;;4.00;;
69220;SDS011;56331;51.992;20.910;2023-02-14T14:29:26;5.17;;;3.95;;
69220;SDS011;56331;51.992;20.910;2023-02-14T14:31:58;4.42;;;3.52;;
69220;SDS011;56331;51.992;20.910;2023-02-14T14:34:49;6.75;;;4.22;;
69220;SDS011;56331;51.992;20.910;2023-02-14T14:37:19;6.65;;;4.30;;
69220;SDS011;56331;51.992;20.910;2023-02-14T14:39:50;4.65;;;3.92;;
69220;SDS011;56331;51.992;20.910;2023-02-14T14:42:36;5.50;;;4.00;;
69220;SDS011;56331;51.992;20.910;2023-02-14T14:45:06;5.80;;;4.58;;
69220;SDS011;56331;51.992;20.910;2023-02-14T14:52:42;4.95;;;4.15;;
69220;SDS011;56331;51.992;20.910;2023-02-14T14:55:25;6.85;;;4.00;;
69220;SDS011;56331;51.992;20.910;2023-02-14T14:57:55;5.08;;;3.87;;
69220;SDS011;56331;51.992;20.910;2023-02-14T15:00:25;6.17;;;4.20;;
69220;SDS011;56331;51.992;20.910;2023-02-14T15:02:54;5.08;;;4.10;;
69220;SDS011;56331;51.992;20.910;2023-02-14T15:05:27;6.23;;;4.57;;
69220;SDS011;56331;51.992;20.910;2023-02-14T15:07:56;6.35;;;4.15;;
69220;SDS011;56331;51.992;20.910;2023-02-14T15:10:28;4.28;;;3.70;;
69220;SDS011;56331;51.992;20.910;2023-02-14T15:12:54;7.28;;;4.35;;
69220;SDS011;56331;51.992;20.910;2023-02-14T15:15:42;7.67;;;4.35;;
69220;SDS011;56331;51.992;20.910;2023-02-14T15:18:14;5.58;;;4.10;;
69220;SDS011;56331;51.992;20.910;2023-02-14T15:20:42;6.08;;;4.00;;
69220;SDS011;56331;51.992;20.910;2023-02-14T15:23:23;4.95;;;4.05;;
69220;SDS011;56331;51.992;20.910;2023-02-14T15:25:48;6.35;;;4.33;;
69220;SDS011;56331;51.992;20.910;2023-02-14T15:28:30;5.62;;;4.45;;
69220;SDS011;56331;51.992;20.910;2023-02-14T15:30:58;4.87;;;3.85;;
69220;SDS011;56331;51.992;20.910;2023-02-14T15:33:24;6.15;;;4.37;;
69220;SDS011;56331;51.992;20.910;2023-02-14T15:35:51;5.45;;;4.12;;
69220;SDS011;56331;51.992;20.910;2023-02-14T15:38:18;5.62;;;4.28;;
69220;SDS011;56331;51.992;20.910;2023-02-14T15:40:47;5.15;;;3.85;;
69220;SDS011;56331;51.992;20.910;2023-02-14T15:45:48;5.30;;;4.17;;
69220;SDS011;56331;51.992;20.910;2023-02-14T15:50:55;5.08;;;3.90;;
69220;SDS011;56331;51.992;20.910;2023-02-14T15:53:35;6.30;;;3.93;;
69220;SDS011;56331;51.992;20.910;2023-02-14T15:56:35;4.33;;;3.60;;
69220;SDS011;56331;51.992;20.910;2023-02-14T15:58:46;6.95;;;4.22;;
69220;SDS011;56331;51.992;20.910;2023-02-14T16:01:21;5.42;;;4.03;;
69220;SDS011;56331;51.992;20.910;2023-02-14T16:03:49;7.08;;;4.20;;
69220;SDS011;56331;51.992;20.910;2023-02-14T16:08:59;5.75;;;4.20;;
69220;SDS011;56331;51.992;20.910;2023-02-14T16:11:31;5.12;;;3.85;;
69220;SDS011;56331;51.992;20.910;2023-02-14T16:14:19;4.92;;;3.95;;
69220;SDS011;56331;51.992;20.910;2023-02-14T16:16:57;6.35;;;4.12;;
69220;SDS011;56331;51.992;20.910;2023-02-14T16:19:32;5.42;;;4.08;;
69220;SDS011;56331;51.992;20.910;2023-02-14T16:22:07;5.60;;;3.85;;
69220;SDS011;56331;51.992;20.910;2023-02-14T16:24:36;5.33;;;3.58;;
69220;SDS011;56331;51.992;20.910;2023-02-14T16:27:03;6.17;;;4.12;;
69220;SDS011;56331;51.992;20.910;2023-02-14T16:29:34;5.15;;;3.95;;
69220;SDS011;56331;51.992;20.910;2023-02-14T16:32:11;7.05;;;3.75;;
69220;SDS011;56331;51.992;20.910;2023-02-14T16:34:39;5.08;;;3.80;;
69220;SDS011;56331;51.992;20.910;2023-02-14T16:37:07;5.70;;;3.77;;
69220;SDS011;56331;51.992;20.910;2023-02-14T16:39:36;8.65;;;3.85;;
69220;SDS011;56331;51.992;20.910;2023-02-14T16:42:04;4.58;;;3.25;;
69220;SDS011;56331;51.992;20.910;2023-02-14T16:44:31;4.78;;;3.72;;
69220;SDS011;56331;51.992;20.910;2023-02-14T16:46:57;5.10;;;3.70;;
69220;SDS011;56331;51.992;20.910;2023-02-14T16:49:26;4.20;;;3.40;;
69220;SDS011;56331;51.992;20.910;2023-02-14T16:51:53;4.35;;;3.22;;
69220;SDS011;56331;51.992;20.910;2023-02-14T16:54:22;5.17;;;3.85;;
69220;SDS011;56331;51.992;20.910;2023-02-14T16:59:29;6.53;;;4.17;;
69220;SDS011;56331;51.992;20.910;2023-02-14T17:01:56;4.42;;;3.83;;
69220;SDS011;56331;51.992;20.910;2023-02-14T17:04:25;4.85;;;3.75;;
69220;SDS011;56331;51.992;20.910;2023-02-14T17:06:52;6.47;;;4.05;;
69220;SDS011;56331;51.992;20.910;2023-02-14T17:09:26;4.55;;;3.62;;
69220;SDS011;56331;51.992;20.910;2023-02-14T17:11:52;4.20;;;3.22;;
69220;SDS011;56331;51.992;20.910;2023-02-14T17:16:50;5.10;;;3.67;;
69220;SDS011;56331;51.992;20.910;2023-02-14T17:19:17;4.17;;;3.62;;
69220;SDS011;56331;51.992;20.910;2023-02-14T17:21:46;4.50;;;3.70;;
69220;SDS011;56331;51.992;20.910;2023-02-14T17:24:13;6.00;;;4.15;;
69220;SDS011;56331;51.992;20.910;2023-02-14T17:26:40;5.00;;;3.72;;
69220;SDS011;56331;51.992;20.910;2023-02-14T17:29:07;4.35;;;3.60;;
69220;SDS011;56331;51.992;20.910;2023-02-14T17:31:33;5.67;;;3.87;;
69220;SDS011;56331;51.992;20.910;2023-02-14T17:34:00;5.28;;;3.87;;
69220;SDS011;56331;51.992;20.910;2023-02-14T17:36:26;6.03;;;4.35;;